sensor_id;sensor_type;location;lat;lon;timestamp;pressure;altitude;pressure_sealevel;temperature;humidity
3096;BME280;1558;42.700;23.360;2023-03-20T00:02:03;95656.84;;;6.27;92.51
3096;BME280;1558;42.700;23.360;2023-03-20T00:04:47;95651.66;;;6.17;92.53
3096;BME280;1558;42.700;23.360;2023-03-20T00:07:28;95639.13;;;5.98;93.06
3096;BME280;1558;42.700;23.360;2023-03-20T00:10:14;95626.53;;;5.80;93.51
3096;BME280;1558;42.700;23.360;2023-03-20T00:12:44;95631.13;;;5.80;94.34
3096;BME280;1558;42.700;23.360;2023-03-20T00:15:24;95638.94;;;5.76;94.49
3096;BME280;1558;42.700;23.360;2023-03-20T00:17:53;95642.97;;;5.74;95.42
3096;BME280;1558;42.700;23.360;2023-03-20T00:20:22;95598.97;;;5.47;95.37
3096;BME280;1558;42.700;23.360;2023-03-20T00:22:51;95645.16;;;5.90;95.70
3096;BME280;1558;42.700;23.360;2023-03-20T00:25:22;95646.94;;;5.76;96.01
3096;BME280;1558;42.700;23.360;2023-03-20T00:27:51;95654.56;;;5.69;96.98
3096;BME280;1558;42.700;23.360;2023-03-20T00:30:22;95656.03;;;5.43;97.20
3096;BME280;1558;42.700;23.360;2023-03-20T00:32:51;95648.94;;;5.33;98.36
3096;BME280;1558;42.700;23.360;2023-03-20T00:35:23;95644.81;;;5.41;99.79
3096;BME280;1558;42.700;23.360;2023-03-20T00:37:51;95607.59;;;5.26;100.00
3096;BME280;1558;42.700;23.360;2023-03-20T00:40:23;95627.69;;;5.42;100.00
3096;BME280;1558;42.700;23.360;2023-03-20T00:42:57;95638.97;;;5.58;100.00
3096;BME280;1558;42.700;23.360;2023-03-20T00:45:27;95635.47;;;5.57;100.00
3096;BME280;1558;42.700;23.360;2023-03-20T00:47:56;95631.44;;;5.60;100.00
3096;BME280;1558;42.700;23.360;2023-03-20T00:50:25;95633.03;;;5.61;100.00
3096;BME280;1558;42.700;23.360;2023-03-20T00:52:56;95580.38;;;5.24;100.00
3096;BME280;1558;42.700;23.360;2023-03-20T00:55:27;95635.41;;;5.62;100.00
3096;BME280;1558;42.700;23.360;2023-03-20T00:57:58;95636.84;;;5.55;100.00
3096;BME280;1558;42.700;23.360;2023-03-20T01:00:44;95626.84;;;5.46;100.00
3096;BME280;1558;42.700;23.360;2023-03-20T01:03:14;95625.22;;;5.45;100.00
3096;BME280;1558;42.700;23.360;2023-03-20T01:05:45;95628.91;;;5.49;100.00
3096;BME280;1558;42.700;23.360;2023-03-20T01:08:14;95583.19;;;5.14;100.00
3096;BME280;1558;42.700;23.360;2023-03-20T01:10:45;95621.19;;;5.29;100.00
3096;BME280;1558;42.700;23.360;2023-03-20T01:13:19;95619.41;;;5.25;100.00
3096;BME280;1558;42.700;23.360;2023-03-20T01:15:48;95612.88;;;5.31;100.00
3096;BME280;1558;42.700;23.360;2023-03-20T01:18:18;95609.84;;;5.37;100.00
3096;BME280;1558;42.700;23.360;2023-03-20T01:20:46;95603.72;;;5.37;100.00
3096;BME280;1558;42.700;23.360;2023-03-20T01:23:15;95609.56;;;5.39;100.00
3096;BME280;1558;42.700;23.360;2023-03-20T01:25:44;95614.47;;;5.32;100.00
3096;BME280;1558;42.700;23.360;2023-03-20T01:28:14;95614.31;;;5.23;100.00
3096;BME280;1558;42.700;23.360;2023-03-20T01:30:44;95620.34;;;5.15;100.00
3096;BME280;1558;42.700;23.360;2023-03-20T01:33:14;95612.59;;;5.14;100.00
3096;BME280;1558;42.700;23.360;2023-03-20T01:35:43;95440.00;;;4.01;100.00
3096;BME280;1558;42.700;23.360;2023-03-20T01:38:13;95618.16;;;5.17;100.00
3096;BME280;1558;42.700;23.360;2023-03-20T01:40:48;95548.38;;;4.82;100.00
3096;BME280;1558;42.700;23.360;2023-03-20T01:43:19;95619.53;;;5.33;100.00
3096;BME280;1558;42.700;23.360;2023-03-20T01:45:54;95624.31;;;5.36;100.00
3096;BME280;1558;42.700;23.360;2023-03-20T01:48:30;95620.41;;;5.29;100.00
3096;BME280;1558;42.700;23.360;2023-03-20T01:51:02;95623.16;;;5.24;100.00
3096;BME280;1558;42.700;23.360;2023-03-20T01:53:30;95632.78;;;5.25;100.00
3096;BME280;1558;42.700;23.360;2023-03-20T01:56:00;95629.56;;;5.04;100.00
3096;BME280;1558;42.700;23.360;2023-03-20T01:58:32;95627.44;;;4.82;100.00
3096;BME280;1558;42.700;23.360;2023-03-20T02:01:03;95627.53;;;4.77;100.00
3096;BME280;1558;42.700;23.360;2023-03-20T02:03:32;95630.19;;;4.77;100.00
3096;BME280;1558;42.700;23.360;2023-03-20T02:06:00;95594.03;;;4.61;100.00
3096;BME280;1558;42.700;23.360;2023-03-20T02:08:30;95556.03;;;4.27;100.00
3096;BME280;1558;42.700;23.360;2023-03-20T02:11:00;95623.88;;;4.68;100.00
3096;BME280;1558;42.700;23.360;2023-03-20T02:13:30;95596.06;;;4.51;100.00
3096;BME280;1558;42.700;23.360;2023-03-20T02:16:02;95609.16;;;4.71;100.00
3096;BME280;1558;42.700;23.360;2023-03-20T02:18:30;95624.41;;;4.70;100.00
3096;BME280;1558;42.700;23.360;2023-03-20T02:21:29;95617.06;;;4.57;100.00
3096;BME280;1558;42.700;23.360;2023-03-20T02:27:08;95619.84;;;4.47;100.00
3096;BME280;1558;42.700;23.360;2023-03-20T02:33:15;95623.50;;;4.56;100.00
3096;BME280;1558;42.700;23.360;2023-03-20T02:36:18;95648.13;;;4.53;100.00
3096;BME280;1558;42.700;23.360;2023-03-20T02:39:15;95612.34;;;4.49;100.00
3096;BME280;1558;42.700;23.360;2023-03-20T02:41:49;95617.06;;;4.57;100.00
3096;BME280;1558;42.700;23.360;2023-03-20T02:44:23;95599.69;;;4.36;100.00
3096;BME280;1558;42.700;23.360;2023-03-20T02:47:01;95607.41;;;4.38;100.00
3096;BME280;1558;42.700;23.360;2023-03-20T02:49:52;95619.75;;;4.34;100.00
3096;BME280;1558;42.700;23.360;2023-03-20T02:52:29;95601.56;;;4.36;100.00
3096;BME280;1558;42.700;23.360;2023-03-20T02:55:09;95593.28;;;4.37;100.00
3096;BME280;1558;42.700;23.360;2023-03-20T02:57:48;95604.69;;;4.43;100.00
3096;BME280;1558;42.700;23.360;2023-03-20T03:00:24;95604.94;;;4.46;100.00
3096;BME280;1558;42.700;23.360;2023-03-20T03:03:00;95603.84;;;4.47;100.00
3096;BME280;1558;42.700;23.360;2023-03-20T03:05:36;95595.38;;;4.40;100.00
3096;BME280;1558;42.700;23.360;2023-03-20T03:08:05;95603.84;;;4.47;100.00
3096;BME280;1558;42.700;23.360;2023-03-20T03:10:41;95604.88;;;4.28;100.00
3096;BME280;1558;42.700;23.360;2023-03-20T03:13:13;95603.97;;;4.37;100.00
3096;BME280;1558;42.700;23.360;2023-03-20T03:15:44;95600.72;;;4.40;100.00
3096;BME280;1558;42.700;23.360;2023-03-20T03:18:16;95605.78;;;4.42;100.00
3096;BME280;1558;42.700;23.360;2023-03-20T03:20:47;95580.63;;;4.24;100.00
3096;BME280;1558;42.700;23.360;2023-03-20T03:23:22;95597.03;;;4.36;100.00
3096;BME280;1558;42.700;23.360;2023-03-20T03:25:54;95606.69;;;4.32;100.00
3096;BME280;1558;42.700;23.360;2023-03-20T03:28:28;95610.31;;;4.41;100.00
3096;BME280;1558;42.700;23.360;2023-03-20T03:30:56;95607.41;;;4.38;100.00
3096;BME280;1558;42.700;23.360;2023-03-20T03:33:27;95604.53;;;4.34;100.00
3096;BME280;1558;42.700;23.360;2023-03-20T03:36:04;95561.75;;;3.92;100.00
3096;BME280;1558;42.700;23.360;2023-03-20T03:38:40;95611.00;;;4.28;100.00
3096;BME280;1558;42.700;23.360;2023-03-20T03:41:18;95624.38;;;4.23;100.00
3096;BME280;1558;42.700;23.360;2023-03-20T03:43:52;95608.63;;;4.27;100.00
3096;BME280;1558;42.700;23.360;2023-03-20T03:46:27;95603.28;;;4.27;100.00
3096;BME280;1558;42.700;23.360;2023-03-20T03:49:02;95611.13;;;4.18;100.00
3096;BME280;1558;42.700;23.360;2023-03-20T03:51:32;95582.66;;;3.85;100.00
3096;BME280;1558;42.700;23.360;2023-03-20T03:54:05;95605.34;;;3.82;100.00
3096;BME280;1558;42.700;23.360;2023-03-20T03:56:40;95604.50;;;3.87;100.00
3096;BME280;1558;42.700;23.360;2023-03-20T03:59:15;95591.53;;;3.75;100.00
3096;BME280;1558;42.700;23.360;2023-03-20T04:01:44;95606.13;;;3.83;100.00
3096;BME280;1558;42.700;23.360;2023-03-20T04:04:14;95606.75;;;3.75;100.00
3096;BME280;1558;42.700;23.360;2023-03-20T04:06:42;95598.22;;;3.73;100.00
3096;BME280;1558;42.700;23.360;2023-03-20T04:09:10;95595.56;;;3.73;100.00
3096;BME280;1558;42.700;23.360;2023-03-20T04:11:39;95598.44;;;3.76;100.00
3096;BME280;1558;42.700;23.360;2023-03-20T04:14:07;95593.41;;;3.75;100.00
3096;BME280;1558;42.700;23.360;2023-03-20T04:16:35;95591.63;;;3.65;100.00
3096;BME280;1558;42.700;23.360;2023-03-20T04:19:03;95579.03;;;3.42;100.00
3096;BME280;1558;42.700;23.360;2023-03-20T04:21:31;95574.56;;;3.32;100.00
3096;BME280;1558;42.700;23.360;2023-03-20T04:23:59;95590.28;;;3.34;100.00
3096;BME280;1558;42.700;23.360;2023-03-20T04:26:27;95597.59;;;3.18;100.00
3096;BME280;1558;42.700;23.360;2023-03-20T04:28:56;95572.38;;;3.06;100.00
3096;BME280;1558;42.700;23.360;2023-03-20T04:31:24;95586.94;;;3.18;100.00
3096;BME280;1558;42.700;23.360;2023-03-20T04:33:52;95596.78;;;3.23;100.00
3096;BME280;1558;42.700;23.360;2023-03-20T04:36:20;95535.94;;;2.96;100.00
3096;BME280;1558;42.700;23.360;2023-03-20T04:38:48;95592.78;;;3.54;100.00
3096;BME280;1558;42.700;23.360;2023-03-20T04:41:16;95592.31;;;3.76;100.00
3096;BME280;1558;42.700;23.360;2023-03-20T04:43:46;95596.53;;;3.82;100.00
3096;BME280;1558;42.700;23.360;2023-03-20T04:46:18;95586.97;;;3.76;100.00
3096;BME280;1558;42.700;23.360;2023-03-20T04:48:46;95607.91;;;3.92;100.00
3096;BME280;1558;42.700;23.360;2023-03-20T04:51:13;95614.84;;;4.17;100.00
3096;BME280;1558;42.700;23.360;2023-03-20T04:53:41;95613.41;;;4.53;100.00
3096;BME280;1558;42.700;23.360;2023-03-20T04:56:13;95613.50;;;4.86;100.00
3096;BME280;1558;42.700;23.360;2023-03-20T04:58:47;95624.81;;;5.01;100.00
3096;BME280;1558;42.700;23.360;2023-03-20T05:01:20;95616.66;;;5.30;100.00
3096;BME280;1558;42.700;23.360;2023-03-20T05:03:49;95620.69;;;5.46;100.00
3096;BME280;1558;42.700;23.360;2023-03-20T05:06:17;95570.63;;;5.14;100.00
3096;BME280;1558;42.700;23.360;2023-03-20T05:08:49;95611.56;;;5.28;100.00
3096;BME280;1558;42.700;23.360;2023-03-20T05:11:20;95622.00;;;5.30;100.00
3096;BME280;1558;42.700;23.360;2023-03-20T05:13:50;95630.72;;;5.35;100.00
3096;BME280;1558;42.700;23.360;2023-03-20T05:16:20;95629.06;;;5.58;100.00
3096;BME280;1558;42.700;23.360;2023-03-20T05:18:48;95637.19;;;5.67;100.00
3096;BME280;1558;42.700;23.360;2023-03-20T05:21:16;95636.91;;;5.68;100.00
3096;BME280;1558;42.700;23.360;2023-03-20T05:23:43;95631.69;;;5.95;100.00
3096;BME280;1558;42.700;23.360;2023-03-20T05:26:11;95636.22;;;5.95;100.00
3096;BME280;1558;42.700;23.360;2023-03-20T05:28:39;95635.34;;;5.99;100.00
3096;BME280;1558;42.700;23.360;2023-03-20T05:31:07;95633.16;;;6.01;100.00
3096;BME280;1558;42.700;23.360;2023-03-20T05:33:37;95628.63;;;6.02;100.00
3096;BME280;1558;42.700;23.360;2023-03-20T05:36:06;95641.16;;;5.88;99.88
3096;BME280;1558;42.700;23.360;2023-03-20T05:38:35;95644.88;;;5.92;99.71
3096;BME280;1558;42.700;23.360;2023-03-20T05:41:03;95652.59;;;5.93;99.83
3096;BME280;1558;42.700;23.360;2023-03-20T05:43:31;95634.44;;;6.23;99.81
3096;BME280;1558;42.700;23.360;2023-03-20T05:45:59;95642.97;;;6.25;98.32
3096;BME280;1558;42.700;23.360;2023-03-20T05:48:27;95644.75;;;6.43;97.43
3096;BME280;1558;42.700;23.360;2023-03-20T05:50:57;95645.09;;;6.82;96.61
3096;BME280;1558;42.700;23.360;2023-03-20T05:53:25;95641.75;;;7.12;93.15
3096;BME280;1558;42.700;23.360;2023-03-20T05:55:54;95652.47;;;7.26;88.94
3096;BME280;1558;42.700;23.360;2023-03-20T05:58:25;95636.94;;;7.36;87.05
3096;BME280;1558;42.700;23.360;2023-03-20T06:01:00;95657.84;;;7.12;84.83
3096;BME280;1558;42.700;23.360;2023-03-20T06:03:39;95653.56;;;7.11;86.33
3096;BME280;1558;42.700;23.360;2023-03-20T06:10:11;95651.66;;;7.39;83.54
3096;BME280;1558;42.700;23.360;2023-03-20T06:13:00;95636.69;;;7.60;83.98
3096;BME280;1558;42.700;23.360;2023-03-20T06:15:28;95648.31;;;7.78;83.21
3096;BME280;1558;42.700;23.360;2023-03-20T06:17:59;95644.44;;;7.84;81.30
3096;BME280;1558;42.700;23.360;2023-03-20T06:20:34;95653.88;;;8.03;81.63
3096;BME280;1558;42.700;23.360;2023-03-20T06:23:08;95654.25;;;8.33;80.08
3096;BME280;1558;42.700;23.360;2023-03-20T06:25:38;95644.03;;;8.43;79.41
3096;BME280;1558;42.700;23.360;2023-03-20T06:28:06;95643.00;;;8.61;78.39
3096;BME280;1558;42.700;23.360;2023-03-20T06:30:34;95627.66;;;8.53;77.27
3096;BME280;1558;42.700;23.360;2023-03-20T06:33:14;95644.00;;;8.12;76.92
3096;BME280;1558;42.700;23.360;2023-03-20T06:35:49;95642.28;;;7.94;77.51
3096;BME280;1558;42.700;23.360;2023-03-20T06:38:26;95645.81;;;8.03;79.29
3096;BME280;1558;42.700;23.360;2023-03-20T06:41:32;95647.38;;;8.49;78.38
3096;BME280;1558;42.700;23.360;2023-03-20T06:44:01;95643.47;;;8.63;76.61
3096;BME280;1558;42.700;23.360;2023-03-20T06:46:30;95647.22;;;8.54;75.94
3096;BME280;1558;42.700;23.360;2023-03-20T06:49:00;95641.81;;;8.76;76.83
3096;BME280;1558;42.700;23.360;2023-03-20T06:51:29;95641.97;;;9.36;76.20
3096;BME280;1558;42.700;23.360;2023-03-20T06:53:58;95572.44;;;9.21;74.65
3096;BME280;1558;42.700;23.360;2023-03-20T06:56:26;95635.78;;;9.78;72.70
3096;BME280;1558;42.700;23.360;2023-03-20T06:58:55;95635.78;;;10.21;72.57
3096;BME280;1558;42.700;23.360;2023-03-20T07:01:23;95607.22;;;10.20;70.58
3096;BME280;1558;42.700;23.360;2023-03-20T07:03:51;95631.41;;;10.54;69.67
3096;BME280;1558;42.700;23.360;2023-03-20T07:06:20;95630.38;;;10.76;69.19
3096;BME280;1558;42.700;23.360;2023-03-20T07:08:48;95597.94;;;10.47;68.25
3096;BME280;1558;42.700;23.360;2023-03-20T07:11:17;95635.41;;;10.40;68.67
3096;BME280;1558;42.700;23.360;2023-03-20T07:13:45;95621.72;;;10.62;68.20
3096;BME280;1558;42.700;23.360;2023-03-20T07:16:16;95573.78;;;10.21;68.19
3096;BME280;1558;42.700;23.360;2023-03-20T07:18:44;95631.16;;;10.39;68.13
3096;BME280;1558;42.700;23.360;2023-03-20T07:21:16;95568.44;;;10.12;68.22
3096;BME280;1558;42.700;23.360;2023-03-20T07:23:45;95628.53;;;10.97;68.85
3096;BME280;1558;42.700;23.360;2023-03-20T07:26:13;95620.16;;;11.40;66.23
3096;BME280;1558;42.700;23.360;2023-03-20T07:28:41;95624.94;;;11.43;65.83
3096;BME280;1558;42.700;23.360;2023-03-20T07:31:19;95628.75;;;11.63;65.30
3096;BME280;1558;42.700;23.360;2023-03-20T07:33:48;95562.00;;;11.22;64.55
3096;BME280;1558;42.700;23.360;2023-03-20T07:36:17;95623.38;;;11.83;64.31
3096;BME280;1558;42.700;23.360;2023-03-20T07:38:45;95632.22;;;11.42;64.35
3096;BME280;1558;42.700;23.360;2023-03-20T07:41:13;95628.00;;;11.53;64.10
3096;BME280;1558;42.700;23.360;2023-03-20T07:43:41;95628.66;;;11.50;64.01
3096;BME280;1558;42.700;23.360;2023-03-20T07:46:10;95626.31;;;11.70;64.57
3096;BME280;1558;42.700;23.360;2023-03-20T07:48:39;95614.94;;;12.50;63.85
3096;BME280;1558;42.700;23.360;2023-03-20T07:51:07;95612.91;;;12.59;61.14
3096;BME280;1558;42.700;23.360;2023-03-20T07:53:35;95625.81;;;13.11;61.07
3096;BME280;1558;42.700;23.360;2023-03-20T07:56:04;95622.75;;;13.24;59.74
3096;BME280;1558;42.700;23.360;2023-03-20T07:58:35;95623.53;;;13.49;59.47
3096;BME280;1558;42.700;23.360;2023-03-20T08:01:04;95592.59;;;13.50;58.36
3096;BME280;1558;42.700;23.360;2023-03-20T08:03:32;95619.09;;;13.69;57.89
3096;BME280;1558;42.700;23.360;2023-03-20T08:06:02;95620.78;;;13.73;57.87
3096;BME280;1558;42.700;23.360;2023-03-20T08:08:32;95620.25;;;13.95;57.49
3096;BME280;1558;42.700;23.360;2023-03-20T08:11:00;95624.88;;;14.50;56.57
3096;BME280;1558;42.700;23.360;2023-03-20T08:13:29;95614.06;;;15.13;54.88
3096;BME280;1558;42.700;23.360;2023-03-20T08:15:57;95607.91;;;15.16;52.51
3096;BME280;1558;42.700;23.360;2023-03-20T08:18:25;95591.06;;;14.32;53.51
3096;BME280;1558;42.700;23.360;2023-03-20T08:20:53;95610.72;;;14.72;54.91
3096;BME280;1558;42.700;23.360;2023-03-20T08:23:23;95584.91;;;15.29;53.21
3096;BME280;1558;42.700;23.360;2023-03-20T08:25:52;95615.97;;;15.12;51.89
3096;BME280;1558;42.700;23.360;2023-03-20T08:28:21;95614.50;;;14.99;53.21
3096;BME280;1558;42.700;23.360;2023-03-20T08:31:09;95571.09;;;15.03;52.55
3096;BME280;1558;42.700;23.360;2023-03-20T08:33:37;95615.53;;;15.26;51.94
3096;BME280;1558;42.700;23.360;2023-03-20T08:36:06;95615.63;;;15.14;51.98
3096;BME280;1558;42.700;23.360;2023-03-20T08:38:37;95622.19;;;15.28;52.13
3096;BME280;1558;42.700;23.360;2023-03-20T08:41:05;95615.38;;;15.69;52.41
3096;BME280;1558;42.700;23.360;2023-03-20T08:43:33;95602.44;;;16.20;51.01
3096;BME280;1558;42.700;23.360;2023-03-20T08:46:02;95613.84;;;16.25;49.89
3096;BME280;1558;42.700;23.360;2023-03-20T08:48:30;95613.59;;;16.34;50.54
3096;BME280;1558;42.700;23.360;2023-03-20T08:50:58;95572.13;;;16.02;49.86
3096;BME280;1558;42.700;23.360;2023-03-20T08:53:27;95603.63;;;16.42;49.04
3096;BME280;1558;42.700;23.360;2023-03-20T08:55:56;95606.88;;;16.09;49.93
3096;BME280;1558;42.700;23.360;2023-03-20T08:58:24;95611.91;;;15.88;49.30
3096;BME280;1558;42.700;23.360;2023-03-20T09:00:52;95588.28;;;16.53;49.06
3096;BME280;1558;42.700;23.360;2023-03-20T09:03:20;95594.69;;;17.32;47.92
3096;BME280;1558;42.700;23.360;2023-03-20T09:05:50;95603.41;;;17.67;46.71
3096;BME280;1558;42.700;23.360;2023-03-20T09:08:18;95590.44;;;17.90;46.00
3096;BME280;1558;42.700;23.360;2023-03-20T09:10:47;95588.63;;;17.45;44.45
3096;BME280;1558;42.700;23.360;2023-03-20T09:13:20;95587.91;;;17.22;45.83
3096;BME280;1558;42.700;23.360;2023-03-20T09:15:54;95592.06;;;17.39;44.84
3096;BME280;1558;42.700;23.360;2023-03-20T09:18:22;95583.19;;;17.72;45.18
3096;BME280;1558;42.700;23.360;2023-03-20T09:20:51;95603.88;;;18.02;44.28
3096;BME280;1558;42.700;23.360;2023-03-20T09:23:19;95581.28;;;18.39;43.87
3096;BME280;1558;42.700;23.360;2023-03-20T09:25:47;95565.66;;;18.02;43.90
3096;BME280;1558;42.700;23.360;2023-03-20T09:28:15;95562.09;;;18.32;43.66
3096;BME280;1558;42.700;23.360;2023-03-20T09:30:44;95572.97;;;18.28;42.36
3096;BME280;1558;42.700;23.360;2023-03-20T09:33:12;95536.69;;;17.61;42.84
3096;BME280;1558;42.700;23.360;2023-03-20T09:35:41;95556.56;;;17.91;43.03
3096;BME280;1558;42.700;23.360;2023-03-20T09:38:09;95560.75;;;17.55;43.32
3096;BME280;1558;42.700;23.360;2023-03-20T09:40:48;95551.66;;;18.07;43.05
3096;BME280;1558;42.700;23.360;2023-03-20T09:43:25;95546.72;;;18.53;42.43
3096;BME280;1558;42.700;23.360;2023-03-20T09:46:05;95550.38;;;18.68;41.81
3096;BME280;1558;42.700;23.360;2023-03-20T09:48:40;95537.34;;;18.54;42.17
3096;BME280;1558;42.700;23.360;2023-03-20T09:51:17;95534.69;;;19.05;40.75
3096;BME280;1558;42.700;23.360;2023-03-20T09:53:51;95530.41;;;19.08;41.23
3096;BME280;1558;42.700;23.360;2023-03-20T09:56:28;95516.38;;;19.16;40.46
3096;BME280;1558;42.700;23.360;2023-03-20T09:58:58;95498.69;;;18.96;40.99
3096;BME280;1558;42.700;23.360;2023-03-20T10:01:32;95504.25;;;19.10;40.65
3096;BME280;1558;42.700;23.360;2023-03-20T10:04:06;95492.41;;;18.92;40.51
3096;BME280;1558;42.700;23.360;2023-03-20T10:06:36;95494.94;;;18.67;40.61
3096;BME280;1558;42.700;23.360;2023-03-20T10:09:14;95496.16;;;18.73;40.98
3096;BME280;1558;42.700;23.360;2023-03-20T10:12:09;95486.47;;;18.83;40.78
3096;BME280;1558;42.700;23.360;2023-03-20T10:14:50;95491.19;;;19.44;40.68
3096;BME280;1558;42.700;23.360;2023-03-20T10:17:28;95482.50;;;19.31;39.81
3096;BME280;1558;42.700;23.360;2023-03-20T10:20:09;95472.63;;;19.85;40.13
3096;BME280;1558;42.700;23.360;2023-03-20T10:22:41;95459.44;;;20.33;38.58
3096;BME280;1558;42.700;23.360;2023-03-20T10:25:22;95442.13;;;20.00;38.36
3096;BME280;1558;42.700;23.360;2023-03-20T10:27:55;95475.88;;;20.33;39.24
3096;BME280;1558;42.700;23.360;2023-03-20T10:30:30;95467.28;;;20.34;38.42
3096;BME280;1558;42.700;23.360;2023-03-20T10:33:11;95453.13;;;20.14;38.40
3096;BME280;1558;42.700;23.360;2023-03-20T10:35:55;95321.09;;;19.31;39.29
3096;BME280;1558;42.700;23.360;2023-03-20T10:38:35;95461.78;;;20.45;38.18
3096;BME280;1558;42.700;23.360;2023-03-20T10:41:10;95453.19;;;20.46;38.40
3096;BME280;1558;42.700;23.360;2023-03-20T10:43:42;95446.94;;;20.84;37.99
3096;BME280;1558;42.700;23.360;2023-03-20T10:46:13;95449.22;;;21.32;37.34
3096;BME280;1558;42.700;23.360;2023-03-20T10:48:46;95435.78;;;21.58;35.81
3096;BME280;1558;42.700;23.360;2023-03-20T10:51:17;95434.19;;;21.61;36.17
3096;BME280;1558;42.700;23.360;2023-03-20T10:53:48;95395.97;;;21.15;35.78
3096;BME280;1558;42.700;23.360;2023-03-20T10:56:25;95385.03;;;20.69;36.40
3096;BME280;1558;42.700;23.360;2023-03-20T10:58:58;95403.41;;;21.01;37.41
3096;BME280;1558;42.700;23.360;2023-03-20T11:01:29;95415.84;;;21.51;35.98
3096;BME280;1558;42.700;23.360;2023-03-20T11:04:01;95378.53;;;21.61;35.60
3096;BME280;1558;42.700;23.360;2023-03-20T11:06:31;95418.09;;;22.39;34.36
3096;BME280;1558;42.700;23.360;2023-03-20T11:09:10;95420.13;;;22.32;34.24
3096;BME280;1558;42.700;23.360;2023-03-20T11:11:39;95411.25;;;22.06;34.39
3096;BME280;1558;42.700;23.360;2023-03-20T11:14:19;95335.25;;;21.89;34.23
3096;BME280;1558;42.700;23.360;2023-03-20T11:16:54;95403.03;;;22.58;34.15
3096;BME280;1558;42.700;23.360;2023-03-20T11:19:41;95395.44;;;22.24;33.43
3096;BME280;1558;42.700;23.360;2023-03-20T11:22:26;95266.03;;;22.01;32.96
3096;BME280;1558;42.700;23.360;2023-03-20T11:25:29;95385.44;;;22.92;32.15
3096;BME280;1558;42.700;23.360;2023-03-20T11:28:32;95397.59;;;22.47;32.32
3096;BME280;1558;42.700;23.360;2023-03-20T11:31:18;95377.34;;;22.27;33.15
3096;BME280;1558;42.700;23.360;2023-03-20T11:34:14;95370.75;;;23.06;32.72
3096;BME280;1558;42.700;23.360;2023-03-20T11:36:56;95358.91;;;23.77;30.88
3096;BME280;1558;42.700;23.360;2023-03-20T11:39:57;95338.22;;;23.92;31.81
3096;BME280;1558;42.700;23.360;2023-03-20T11:42:52;95232.91;;;23.54;29.15
3096;BME280;1558;42.700;23.360;2023-03-20T11:45:35;95238.03;;;22.58;29.45
3096;BME280;1558;42.700;23.360;2023-03-20T11:48:18;95304.81;;;23.29;30.29
3096;BME280;1558;42.700;23.360;2023-03-20T11:50:59;95327.16;;;24.45;28.54
3096;BME280;1558;42.700;23.360;2023-03-20T11:53:32;95321.03;;;24.80;28.62
3096;BME280;1558;42.700;23.360;2023-03-20T11:56:08;95321.88;;;24.77;27.31
3096;BME280;1558;42.700;23.360;2023-03-20T11:58:53;95274.41;;;24.43;27.56
3096;BME280;1558;42.700;23.360;2023-03-20T12:01:42;95307.78;;;25.15;27.59
3096;BME280;1558;42.700;23.360;2023-03-20T12:04:28;95068.03;;;23.06;26.72
3096;BME280;1558;42.700;23.360;2023-03-20T12:07:12;95211.59;;;24.08;27.11
3096;BME280;1558;42.700;23.360;2023-03-20T12:09:58;95010.50;;;23.38;26.61
3096;BME280;1558;42.700;23.360;2023-03-20T12:12:37;95295.53;;;25.55;25.94
3096;BME280;1558;42.700;23.360;2023-03-20T12:15:15;95268.56;;;25.59;25.50
3096;BME280;1558;42.700;23.360;2023-03-20T12:17:52;95277.56;;;25.63;25.29
3096;BME280;1558;42.700;23.360;2023-03-20T12:20:29;95283.91;;;25.05;24.92
3096;BME280;1558;42.700;23.360;2023-03-20T12:23:05;95277.31;;;25.38;24.80
3096;BME280;1558;42.700;23.360;2023-03-20T12:25:43;95278.56;;;26.05;24.22
3096;BME280;1558;42.700;23.360;2023-03-20T12:28:19;95264.31;;;26.06;24.03
3096;BME280;1558;42.700;23.360;2023-03-20T12:31:00;95240.91;;;25.95;23.58
3096;BME280;1558;42.700;23.360;2023-03-20T12:33:38;95280.97;;;25.87;22.84
3096;BME280;1558;42.700;23.360;2023-03-20T12:36:13;95267.25;;;25.47;23.42
3096;BME280;1558;42.700;23.360;2023-03-20T12:38:43;95269.16;;;24.92;24.07
3096;BME280;1558;42.700;23.360;2023-03-20T12:41:14;95200.69;;;24.24;24.52
3096;BME280;1558;42.700;23.360;2023-03-20T12:43:58;95256.00;;;25.19;23.77
3096;BME280;1558;42.700;23.360;2023-03-20T12:46:37;95217.56;;;24.69;22.76
3096;BME280;1558;42.700;23.360;2023-03-20T12:49:15;95233.06;;;25.22;23.34
3096;BME280;1558;42.700;23.360;2023-03-20T12:51:54;95232.94;;;25.09;22.89
3096;BME280;1558;42.700;23.360;2023-03-20T12:54:37;95241.97;;;25.49;23.67
3096;BME280;1558;42.700;23.360;2023-03-20T12:57:16;95243.88;;;25.68;22.90
3096;BME280;1558;42.700;23.360;2023-03-20T13:00:08;95248.22;;;24.94;22.81
3096;BME280;1558;42.700;23.360;2023-03-20T13:02:47;95228.69;;;25.05;23.31
3096;BME280;1558;42.700;23.360;2023-03-20T13:05:24;95143.41;;;24.71;23.25
3096;BME280;1558;42.700;23.360;2023-03-20T13:08:12;95224.63;;;25.29;23.31
3096;BME280;1558;42.700;23.360;2023-03-20T13:10:51;95223.88;;;24.89;23.25
3096;BME280;1558;42.700;23.360;2023-03-20T13:13:29;95200.91;;;24.33;23.76
3096;BME280;1558;42.700;23.360;2023-03-20T13:16:07;95209.13;;;24.13;23.85
3096;BME280;1558;42.700;23.360;2023-03-20T13:18:51;95171.25;;;23.71;23.93
3096;BME280;1558;42.700;23.360;2023-03-20T13:21:26;95207.94;;;23.91;23.81
3096;BME280;1558;42.700;23.360;2023-03-20T13:23:59;95203.16;;;23.69;24.53
3096;BME280;1558;42.700;23.360;2023-03-20T13:26:36;95202.84;;;23.63;24.73
3096;BME280;1558;42.700;23.360;2023-03-20T13:29:10;95186.91;;;23.24;24.37
3096;BME280;1558;42.700;23.360;2023-03-20T13:31:49;95193.31;;;23.14;24.61
3096;BME280;1558;42.700;23.360;2023-03-20T13:34:26;95197.34;;;23.06;24.91
3096;BME280;1558;42.700;23.360;2023-03-20T13:37:06;95193.84;;;22.75;25.37
3096;BME280;1558;42.700;23.360;2023-03-20T13:39:59;95168.22;;;22.82;25.06
3096;BME280;1558;42.700;23.360;2023-03-20T13:42:36;95186.47;;;22.69;24.81
3096;BME280;1558;42.700;23.360;2023-03-20T13:45:25;95165.75;;;22.57;25.25
3096;BME280;1558;42.700;23.360;2023-03-20T13:47:59;95172.69;;;22.72;25.38
3096;BME280;1558;42.700;23.360;2023-03-20T13:50:40;95168.69;;;22.77;25.29
3096;BME280;1558;42.700;23.360;2023-03-20T13:53:20;95173.63;;;22.55;25.37
3096;BME280;1558;42.700;23.360;2023-03-20T13:55:56;95164.97;;;22.57;25.19
3096;BME280;1558;42.700;23.360;2023-03-20T13:58:49;95162.53;;;22.66;24.83